createdAt,value
2022-12-08T00:00:01.481Z,0.80
2022-12-08T00:02:28.265Z,0.80
2022-12-08T00:04:55.206Z,0.80
2022-12-08T00:07:21.826Z,0.80
2022-12-08T00:09:49.565Z,0.80
2022-12-08T00:12:16.227Z,0.80
2022-12-08T00:14:45.268Z,0.70
2022-12-08T00:17:15.214Z,0.70
2022-12-08T00:19:43.047Z,0.70
2022-12-08T00:22:10.897Z,0.70
2022-12-08T00:24:39.115Z,0.70
2022-12-08T00:27:07.412Z,0.70
2022-12-08T00:29:34.053Z,0.70
2022-12-08T00:32:00.859Z,0.70
2022-12-08T00:34:27.600Z,0.70
2022-12-08T00:36:54.257Z,0.70
2022-12-08T00:39:20.904Z,0.70
2022-12-08T00:41:47.617Z,0.80
2022-12-08T00:44:16.520Z,0.90
2022-12-08T00:46:43.200Z,0.90
2022-12-08T00:49:09.890Z,0.90
2022-12-08T00:51:37.243Z,1.00
2022-12-08T00:54:05.278Z,0.90
2022-12-08T00:56:32.553Z,0.90
2022-12-08T00:58:59.970Z,0.90
2022-12-08T01:01:27.629Z,0.90
2022-12-08T01:03:54.333Z,0.90
2022-12-08T01:06:21.043Z,0.90
2022-12-08T01:08:47.761Z,0.90
2022-12-08T01:11:19.452Z,0.90
2022-12-08T01:13:46.848Z,1.00
2022-12-08T01:16:30.970Z,1.00
2022-12-08T01:18:59.296Z,1.00
2022-12-08T01:21:26.996Z,1.00
2022-12-08T01:23:54.426Z,1.00
2022-12-08T01:26:21.535Z,1.10
2022-12-08T01:28:48.508Z,1.10
2022-12-08T01:31:20.538Z,1.20
2022-12-08T01:33:47.876Z,1.20
2022-12-08T01:36:29.308Z,1.20
2022-12-08T01:38:58.861Z,1.30
2022-12-08T01:41:31.542Z,1.30
2022-12-08T01:44:22.683Z,1.30
2022-12-08T01:46:49.794Z,1.30
2022-12-08T01:49:32.918Z,1.30
2022-12-08T01:52:22.414Z,1.30
2022-12-08T01:55:02.419Z,1.30
2022-12-08T01:57:36.391Z,1.30
2022-12-08T02:00:08.160Z,1.30
2022-12-08T02:03:00.239Z,1.30
2022-12-08T02:05:30.989Z,1.40
2022-12-08T02:08:00.069Z,1.40
2022-12-08T02:10:33.050Z,1.40
2022-12-08T02:13:01.025Z,1.50
2022-12-08T02:15:46.704Z,1.50
2022-12-08T02:18:34.276Z,1.50
2022-12-08T02:21:23.728Z,1.50
2022-12-08T02:23:59.691Z,1.50
2022-12-08T02:26:32.159Z,1.50
2022-12-08T02:29:17.531Z,1.50
2022-12-08T02:32:05.357Z,1.50
2022-12-08T02:34:38.809Z,1.50
2022-12-08T02:37:29.388Z,1.50
2022-12-08T02:40:06.354Z,1.40
2022-12-08T02:42:43.590Z,1.40
2022-12-08T02:45:16.958Z,1.40
2022-12-08T02:47:44.612Z,1.30
2022-12-08T02:50:12.086Z,1.30
2022-12-08T02:52:44.369Z,1.30
2022-12-08T02:55:20.744Z,1.30
2022-12-08T02:58:28.726Z,1.20
2022-12-08T03:01:07.564Z,1.30
2022-12-08T03:03:44.704Z,1.20
2022-12-08T03:06:30.552Z,1.20
2022-12-08T03:09:35.701Z,1.20
2022-12-08T03:12:11.712Z,1.30
2022-12-08T03:14:40.650Z,1.20
2022-12-08T03:17:08.577Z,1.20
2022-12-08T03:19:39.011Z,1.20
2022-12-08T03:22:07.194Z,1.30
2022-12-08T03:24:55.019Z,1.30
2022-12-08T03:27:30.688Z,1.30
2022-12-08T03:29:59.814Z,1.30
2022-12-08T03:32:40.054Z,1.30
2022-12-08T03:35:11.173Z,1.30
2022-12-08T03:37:39.990Z,1.30
2022-12-08T03:40:09.573Z,1.40
2022-12-08T03:42:36.266Z,1.30
2022-12-08T03:45:03.344Z,1.30
2022-12-08T03:47:30.103Z,1.30
2022-12-08T03:49:56.783Z,1.30
2022-12-08T03:52:23.501Z,1.30
2022-12-08T03:54:50.183Z,1.30
2022-12-08T03:57:16.959Z,1.30
2022-12-08T03:59:44.135Z,1.30
2022-12-08T04:02:10.847Z,1.20
2022-12-08T04:04:37.549Z,1.20
2022-12-08T04:07:04.298Z,1.30
2022-12-08T04:09:30.951Z,1.20
2022-12-08T04:11:57.639Z,1.20
2022-12-08T04:14:24.563Z,1.20
2022-12-08T04:16:51.219Z,1.20
2022-12-08T04:19:17.898Z,1.20
2022-12-08T04:21:44.546Z,1.20
2022-12-08T04:24:11.270Z,1.20
2022-12-08T04:26:37.988Z,1.20
2022-12-08T04:29:04.675Z,1.20
2022-12-08T04:31:31.453Z,1.20
2022-12-08T04:33:58.191Z,1.10
2022-12-08T04:36:24.894Z,1.10
2022-12-08T04:38:51.585Z,1.10
2022-12-08T04:41:18.278Z,1.10
2022-12-08T04:43:45.387Z,1.10
2022-12-08T04:46:12.179Z,1.10
2022-12-08T04:48:40.145Z,1.10
2022-12-08T04:51:07.617Z,1.10
2022-12-08T04:53:34.353Z,1.00
2022-12-08T04:56:01.050Z,1.00
2022-12-08T04:58:27.752Z,1.00
2022-12-08T05:00:54.469Z,1.00
2022-12-08T05:03:26.872Z,1.10
2022-12-08T05:05:55.415Z,1.10
2022-12-08T05:08:22.116Z,1.10
2022-12-08T05:10:48.867Z,1.10
2022-12-08T05:13:15.539Z,1.00
2022-12-08T05:15:42.294Z,1.10
2022-12-08T05:18:09.032Z,1.10
2022-12-08T05:20:36.069Z,1.10
2022-12-08T05:23:02.717Z,1.10
2022-12-08T05:25:29.608Z,1.20
2022-12-08T05:28:17.680Z,1.20
2022-12-08T05:30:43.088Z,1.20
2022-12-08T05:33:11.016Z,1.20
2022-12-08T05:35:37.710Z,1.20
2022-12-08T05:38:05.080Z,1.20
2022-12-08T05:40:31.768Z,1.20
2022-12-08T05:42:58.443Z,1.20
2022-12-08T05:45:25.178Z,1.20
2022-12-08T05:47:53.526Z,1.30
2022-12-08T05:50:20.183Z,1.30
2022-12-08T05:52:46.878Z,1.30
2022-12-08T05:55:13.608Z,1.30
2022-12-08T05:57:40.314Z,1.30
2022-12-08T06:00:07.884Z,1.30
2022-12-08T06:02:36.471Z,1.30
2022-12-08T06:05:03.298Z,1.30
2022-12-08T06:07:30.123Z,1.30
2022-12-08T06:09:56.878Z,1.30
2022-12-08T06:12:23.527Z,1.30
2022-12-08T06:14:50.206Z,1.40
2022-12-08T06:17:16.954Z,1.40
2022-12-08T06:19:43.687Z,1.40
2022-12-08T06:22:10.361Z,1.40
2022-12-08T06:24:37.025Z,1.40
2022-12-08T06:27:03.722Z,1.40
2022-12-08T06:29:30.403Z,1.40
2022-12-08T06:31:57.134Z,1.40
2022-12-08T06:34:23.941Z,1.50
2022-12-08T06:36:50.643Z,1.50
2022-12-08T06:39:17.323Z,1.50
2022-12-08T06:41:43.946Z,1.50
2022-12-08T06:44:10.647Z,1.50
2022-12-08T06:46:37.290Z,1.50
2022-12-08T06:49:04.053Z,1.50
2022-12-08T06:51:30.737Z,1.50
2022-12-08T06:53:57.344Z,1.50
2022-12-08T06:56:24.010Z,1.50
2022-12-08T06:58:52.979Z,1.50
2022-12-08T07:01:20.102Z,1.50
2022-12-08T07:03:46.827Z,1.60
2022-12-08T07:06:25.220Z,1.60
2022-12-08T07:08:52.007Z,1.60
2022-12-08T07:11:22.055Z,1.60
2022-12-08T07:13:50.266Z,1.60
2022-12-08T07:16:17.085Z,1.70
2022-12-08T07:18:43.938Z,1.60
2022-12-08T07:21:12.913Z,1.70
2022-12-08T07:23:39.749Z,1.70
2022-12-08T07:26:08.178Z,1.70
2022-12-08T07:28:36.908Z,1.70
2022-12-08T07:31:04.980Z,1.70
2022-12-08T07:33:32.878Z,1.80
2022-12-08T07:36:05.462Z,1.80
2022-12-08T07:38:32.744Z,1.70
2022-12-08T07:40:59.783Z,1.80
2022-12-08T07:43:26.686Z,1.80
2022-12-08T07:45:53.624Z,1.80
2022-12-08T07:48:20.581Z,1.90
2022-12-08T07:50:47.587Z,1.90
2022-12-08T07:53:14.553Z,1.80
2022-12-08T07:55:43.000Z,1.80
2022-12-08T07:58:10.657Z,1.90
2022-12-08T08:00:37.439Z,1.90
2022-12-08T08:03:04.368Z,1.90
2022-12-08T08:05:31.166Z,2.00
2022-12-08T08:07:57.939Z,2.00
2022-12-08T08:10:24.668Z,2.00
2022-12-08T08:12:51.394Z,2.10
2022-12-08T08:15:18.250Z,2.10
2022-12-08T08:17:44.943Z,2.10
2022-12-08T08:20:12.153Z,2.10
2022-12-08T08:22:38.824Z,2.10
2022-12-08T08:25:05.859Z,2.00
2022-12-08T08:27:32.629Z,2.10
2022-12-08T08:29:59.301Z,2.20
2022-12-08T08:32:25.978Z,2.20
2022-12-08T08:34:52.662Z,2.20
2022-12-08T08:37:19.457Z,2.20
2022-12-08T08:39:46.170Z,2.20
2022-12-08T08:42:12.885Z,2.20
2022-12-08T08:44:39.542Z,2.20
2022-12-08T08:47:06.342Z,2.20
2022-12-08T08:49:33.079Z,2.20
2022-12-08T08:51:59.766Z,2.20
2022-12-08T08:54:28.984Z,2.20
2022-12-08T08:57:00.509Z,2.20
2022-12-08T08:59:27.969Z,2.20
2022-12-08T09:01:55.195Z,2.30
2022-12-08T09:04:23.225Z,2.30
2022-12-08T09:06:49.946Z,2.30
2022-12-08T09:09:17.111Z,2.40
2022-12-08T09:11:43.967Z,2.40
2022-12-08T09:14:14.738Z,2.50
2022-12-08T09:16:42.769Z,2.50
2022-12-08T09:19:09.802Z,2.60
2022-12-08T09:21:36.565Z,2.60
2022-12-08T09:24:03.549Z,2.50
2022-12-08T09:26:30.331Z,2.50
2022-12-08T09:28:57.500Z,2.60
2022-12-08T09:31:24.939Z,2.60
2022-12-08T09:33:51.885Z,2.60
2022-12-08T09:36:19.250Z,2.60
2022-12-08T09:38:45.991Z,2.60
2022-12-08T09:41:37.469Z,2.70
2022-12-08T09:44:28.995Z,2.60
2022-12-08T09:46:58.702Z,2.70
2022-12-08T09:49:41.602Z,2.70
2022-12-08T09:52:31.304Z,2.70
2022-12-08T09:55:01.238Z,2.70
2022-12-08T09:57:28.222Z,2.70
2022-12-08T10:00:06.072Z,2.70
2022-12-08T10:02:33.747Z,2.70
2022-12-08T10:05:00.617Z,2.70
2022-12-08T10:07:32.550Z,2.80
2022-12-08T10:10:22.295Z,2.80
2022-12-08T10:13:01.120Z,2.90
2022-12-08T10:15:41.707Z,2.90
2022-12-08T10:18:18.352Z,2.90
2022-12-08T10:20:47.969Z,2.90
2022-12-08T10:23:35.364Z,2.90
2022-12-08T10:26:17.699Z,2.90
2022-12-08T10:28:45.616Z,2.90
2022-12-08T10:31:31.407Z,2.90
2022-12-08T10:34:28.195Z,2.90
2022-12-08T10:36:57.369Z,2.80
2022-12-08T10:39:31.213Z,2.80
2022-12-08T10:42:22.208Z,2.80
2022-12-08T10:45:27.438Z,2.90
2022-12-08T10:48:01.593Z,2.90
2022-12-08T10:50:32.196Z,2.90
2022-12-08T10:53:10.884Z,3.00
2022-12-08T10:55:49.275Z,3.00
2022-12-08T10:58:32.947Z,3.00
2022-12-08T11:01:23.997Z,3.00
2022-12-08T11:03:53.963Z,3.10
2022-12-08T11:06:36.672Z,3.10
2022-12-08T11:09:11.404Z,3.10
2022-12-08T11:11:54.850Z,3.10
2022-12-08T11:14:24.533Z,3.00
2022-12-08T11:17:11.589Z,3.00
2022-12-08T11:19:41.100Z,2.90
2022-12-08T11:22:27.909Z,2.90
2022-12-08T11:25:27.261Z,2.90
2022-12-08T11:27:58.030Z,2.90
2022-12-08T11:30:42.699Z,2.80
2022-12-08T11:33:25.797Z,2.80
2022-12-08T11:36:11.362Z,2.70
2022-12-08T11:38:44.060Z,2.60
2022-12-08T11:41:16.999Z,2.60
2022-12-08T11:44:00.832Z,2.50
2022-12-08T11:46:50.036Z,2.40
2022-12-08T11:49:16.960Z,2.50
2022-12-08T11:51:54.647Z,2.50
2022-12-08T11:54:29.792Z,2.60
2022-12-08T11:56:59.161Z,2.60
2022-12-08T11:59:34.684Z,2.60
2022-12-08T12:02:05.220Z,2.60
2022-12-08T12:04:35.799Z,2.70
2022-12-08T12:07:26.401Z,2.70
2022-12-08T12:09:56.118Z,2.70
2022-12-08T12:12:34.938Z,2.60
2022-12-08T12:15:39.918Z,2.60
2022-12-08T12:18:30.698Z,2.60
2022-12-08T12:21:12.507Z,2.60
2022-12-08T12:23:42.143Z,2.60
2022-12-08T12:26:24.254Z,2.60
2022-12-08T12:29:04.986Z,2.60
2022-12-08T12:31:51.971Z,2.60
2022-12-08T12:34:23.886Z,2.60
2022-12-08T12:36:55.316Z,2.60
2022-12-08T12:39:27.204Z,2.60
2022-12-08T12:41:59.592Z,2.60
2022-12-08T12:44:29.157Z,2.50
2022-12-08T12:47:06.368Z,2.50
2022-12-08T12:49:39.299Z,2.50
2022-12-08T12:52:15.632Z,2.40
2022-12-08T12:54:43.361Z,2.40
2022-12-08T12:57:09.984Z,2.50
2022-12-08T13:00:05.519Z,2.50
2022-12-08T13:02:37.993Z,2.60
2022-12-08T13:05:26.638Z,2.60
2022-12-08T13:07:56.244Z,2.60
2022-12-08T13:10:33.462Z,2.50
2022-12-08T13:13:17.484Z,2.60
2022-12-08T13:15:56.803Z,2.70
2022-12-08T13:18:28.970Z,2.60
2022-12-08T13:21:18.597Z,2.60
2022-12-08T13:24:07.061Z,2.50
2022-12-08T13:26:44.220Z,2.50
2022-12-08T13:29:27.051Z,2.50
2022-12-08T13:31:57.467Z,2.60
2022-12-08T13:34:32.979Z,2.60
2022-12-08T13:37:11.996Z,2.50
2022-12-08T13:39:44.702Z,2.50
2022-12-08T13:42:32.587Z,2.50
2022-12-08T13:48:27.030Z,2.40
2022-12-08T13:55:00.736Z,2.30
2022-12-08T13:57:11.246Z,2.30
2022-12-08T13:59:44.840Z,2.30
2022-12-08T14:02:29.937Z,2.30
2022-12-08T14:07:44.639Z,2.40
2022-12-08T14:10:19.422Z,2.40
2022-12-08T14:12:51.336Z,2.40
2022-12-08T14:15:19.977Z,2.40
2022-12-08T14:17:55.597Z,2.50
2022-12-08T14:20:46.475Z,2.50
2022-12-08T14:23:18.850Z,2.50
2022-12-08T14:25:47.897Z,2.40
2022-12-08T14:28:14.634Z,2.30
2022-12-08T14:30:41.420Z,2.30
2022-12-08T14:33:14.529Z,2.30
2022-12-08T14:35:41.323Z,2.40
2022-12-08T14:38:19.605Z,2.40
2022-12-08T14:40:48.992Z,2.40
2022-12-08T14:43:18.647Z,2.40
2022-12-08T14:45:45.391Z,2.40
2022-12-08T14:48:26.478Z,2.40
2022-12-08T14:51:15.244Z,2.40
2022-12-08T14:53:54.556Z,2.30
2022-12-08T14:56:36.175Z,2.40
2022-12-08T14:59:07.326Z,2.30
2022-12-08T15:01:35.070Z,2.30
2022-12-08T15:04:12.527Z,2.20
2022-12-08T15:07:13.577Z,2.30
2022-12-08T15:09:42.088Z,2.30
2022-12-08T15:12:14.970Z,2.30
2022-12-08T15:14:55.102Z,2.40
2022-12-08T15:17:40.210Z,2.30
2022-12-08T15:20:27.576Z,2.30
2022-12-08T15:22:58.532Z,2.30
2022-12-08T15:25:25.378Z,2.30
2022-12-08T15:27:52.181Z,2.40
2022-12-08T15:30:19.431Z,2.40
2022-12-08T15:32:46.175Z,2.40
2022-12-08T15:35:14.577Z,2.40
2022-12-08T15:37:41.896Z,2.40
2022-12-08T15:40:17.109Z,2.40
2022-12-08T15:42:43.799Z,2.40
2022-12-08T15:45:14.277Z,2.40
2022-12-08T15:47:42.454Z,2.40
2022-12-08T15:50:18.544Z,2.40
2022-12-08T15:52:45.558Z,2.40
2022-12-08T15:55:17.322Z,2.40
2022-12-08T16:00:53.856Z,2.30
2022-12-08T16:09:12.322Z,2.30
2022-12-08T16:12:05.258Z,2.30
2022-12-08T16:15:46.702Z,2.30
2022-12-08T16:17:15.827Z,2.30
2022-12-08T16:19:42.607Z,2.20
2022-12-08T16:25:22.658Z,2.20
2022-12-08T16:28:08.337Z,2.20
2022-12-08T16:30:39.693Z,2.20
2022-12-08T16:33:06.731Z,2.20
2022-12-08T16:35:33.525Z,2.20
2022-12-08T16:38:00.297Z,2.30
2022-12-08T16:40:26.985Z,2.30
2022-12-08T16:42:53.737Z,2.20
2022-12-08T16:45:26.148Z,2.20
2022-12-08T16:47:54.137Z,2.30
2022-12-08T16:50:23.286Z,2.20
2022-12-08T16:52:56.098Z,2.30
2022-12-08T16:55:22.867Z,2.20
2022-12-08T16:57:49.597Z,2.30
2022-12-08T17:00:22.048Z,2.20
2022-12-08T17:02:49.543Z,2.20
2022-12-08T17:05:18.443Z,2.20
2022-12-08T17:07:47.061Z,2.20
2022-12-08T17:10:17.458Z,2.20
2022-12-08T17:12:44.824Z,2.10
2022-12-08T17:15:15.301Z,2.10
2022-12-08T17:17:42.212Z,2.10
2022-12-08T17:20:15.363Z,2.10
2022-12-08T17:22:42.075Z,2.10
2022-12-08T17:25:09.195Z,2.00
2022-12-08T17:27:36.792Z,2.00
2022-12-08T17:30:05.564Z,1.90
2022-12-08T17:32:32.743Z,1.90
2022-12-08T17:34:59.599Z,1.90
2022-12-08T17:37:26.518Z,1.90
2022-12-08T17:39:54.408Z,1.80
2022-12-08T17:42:21.216Z,1.80
2022-12-08T17:44:47.997Z,1.80
2022-12-08T17:47:14.674Z,1.80
2022-12-08T17:49:41.478Z,1.80
2022-12-08T17:52:08.179Z,1.80
2022-12-08T17:54:34.981Z,1.80
2022-12-08T17:57:01.869Z,1.80
2022-12-08T17:59:29.315Z,1.80
2022-12-08T18:01:57.526Z,1.80
2022-12-08T18:04:26.429Z,1.80
2022-12-08T18:06:53.228Z,1.70
2022-12-08T18:09:20.287Z,1.70
2022-12-08T18:11:47.269Z,1.70
2022-12-08T18:14:14.588Z,1.70
2022-12-08T18:16:45.972Z,1.70
2022-12-08T18:19:14.032Z,1.70
2022-12-08T18:21:41.726Z,1.70
2022-12-08T18:24:15.097Z,1.70
2022-12-08T18:26:41.830Z,1.70
2022-12-08T18:29:08.752Z,1.70
2022-12-08T18:31:35.501Z,1.70
2022-12-08T18:34:02.332Z,1.60
2022-12-08T18:36:29.093Z,1.60
2022-12-08T18:38:55.826Z,1.60
2022-12-08T18:41:25.172Z,1.60
2022-12-08T18:43:56.256Z,1.60
2022-12-08T18:46:24.162Z,1.60
2022-12-08T18:48:51.980Z,1.60
2022-12-08T18:51:25.303Z,1.50
2022-12-08T18:53:52.828Z,1.50
2022-12-08T18:56:29.252Z,1.50
2022-12-08T18:59:02.989Z,1.50
2022-12-08T19:01:35.101Z,1.50
2022-12-08T19:04:27.320Z,1.40
2022-12-08T19:06:52.820Z,1.50
2022-12-08T19:09:20.078Z,1.40
2022-12-08T19:11:46.967Z,1.50
2022-12-08T19:14:13.639Z,1.50
2022-12-08T19:16:40.335Z,1.40
2022-12-08T19:19:07.090Z,1.40
2022-12-08T19:21:35.791Z,1.40
2022-12-08T19:24:02.511Z,1.40
2022-12-08T19:26:29.281Z,1.40
2022-12-08T19:28:57.061Z,1.40
2022-12-08T19:31:23.782Z,1.50
2022-12-08T19:33:50.562Z,1.40
2022-12-08T19:36:20.880Z,1.40
2022-12-08T19:38:47.698Z,1.40
2022-12-08T19:41:14.381Z,1.50
2022-12-08T19:43:41.189Z,1.50
2022-12-08T19:46:08.785Z,1.50
2022-12-08T19:48:35.609Z,1.50
2022-12-08T19:51:02.396Z,1.50
2022-12-08T19:53:29.061Z,1.50
2022-12-08T19:55:55.754Z,1.40
2022-12-08T19:58:22.464Z,1.40
2022-12-08T20:00:49.193Z,1.40
2022-12-08T20:03:18.052Z,1.40
2022-12-08T20:05:46.664Z,1.30
2022-12-08T20:08:13.503Z,1.30
2022-12-08T20:10:42.293Z,1.30
2022-12-08T20:13:13.476Z,1.30
2022-12-08T20:15:40.746Z,1.20
2022-12-08T20:18:07.612Z,1.20
2022-12-08T20:20:34.364Z,1.20
2022-12-08T20:23:01.341Z,1.10
2022-12-08T20:25:30.507Z,1.10
2022-12-08T20:27:57.324Z,1.00
2022-12-08T20:30:24.270Z,1.00
2022-12-08T20:32:56.126Z,1.00
2022-12-08T20:35:23.080Z,1.00
2022-12-08T20:37:50.002Z,1.00
2022-12-08T20:40:19.107Z,1.00
2022-12-08T20:42:45.959Z,0.90
2022-12-08T20:45:12.850Z,0.90
2022-12-08T20:47:39.638Z,0.90
2022-12-08T20:50:07.834Z,0.90
2022-12-08T20:52:34.882Z,0.90
2022-12-08T20:55:01.758Z,0.90
2022-12-08T20:57:28.677Z,0.80
2022-12-08T20:59:55.602Z,0.80
2022-12-08T21:02:22.442Z,0.80
2022-12-08T21:04:49.408Z,0.70
2022-12-08T21:07:16.459Z,0.70
2022-12-08T21:09:44.113Z,0.70
2022-12-08T21:12:11.592Z,0.70
2022-12-08T21:14:38.438Z,0.70
2022-12-08T21:17:07.213Z,0.70
2022-12-08T21:19:34.344Z,0.70
2022-12-08T21:22:01.258Z,0.70
2022-12-08T21:24:33.968Z,0.60
2022-12-08T21:27:01.941Z,0.60
2022-12-08T21:29:29.236Z,0.60
2022-12-08T21:31:59.349Z,0.70
2022-12-08T21:34:28.159Z,0.60
2022-12-08T21:36:55.022Z,0.60
2022-12-08T21:39:21.741Z,0.50
2022-12-08T21:41:51.695Z,0.50
2022-12-08T21:44:18.707Z,0.50
2022-12-08T21:46:45.568Z,0.60
2022-12-08T21:49:12.963Z,0.60
2022-12-08T21:51:39.797Z,0.60
2022-12-08T21:54:06.725Z,0.60
2022-12-08T21:56:33.630Z,0.60
2022-12-08T21:59:00.581Z,0.60
2022-12-08T22:01:27.650Z,0.60
2022-12-08T22:03:54.810Z,0.60
2022-12-08T22:06:21.800Z,0.60
2022-12-08T22:08:48.689Z,0.60
2022-12-08T22:11:15.613Z,0.60
2022-12-08T22:13:42.508Z,0.60
2022-12-08T22:16:12.118Z,0.60
2022-12-08T22:18:39.174Z,0.60
2022-12-08T22:21:17.278Z,0.50
2022-12-08T22:23:45.192Z,0.50
2022-12-08T22:26:13.215Z,0.50
2022-12-08T22:28:41.987Z,0.50
2022-12-08T22:31:19.501Z,0.50
2022-12-08T22:33:47.226Z,0.50
2022-12-08T22:36:25.507Z,0.50
2022-12-08T22:38:54.808Z,0.50
2022-12-08T22:41:22.150Z,0.50
2022-12-08T22:43:49.450Z,0.50
2022-12-08T22:46:19.919Z,0.50
2022-12-08T22:48:47.630Z,0.50
2022-12-08T22:51:15.273Z,0.50
2022-12-08T22:53:43.215Z,0.50
2022-12-08T22:56:11.848Z,0.50
2022-12-08T22:58:39.927Z,0.50
2022-12-08T23:01:07.564Z,0.50
2022-12-08T23:03:34.980Z,0.50
2022-12-08T23:06:02.227Z,0.50
2022-12-08T23:08:31.712Z,0.50
2022-12-08T23:10:58.500Z,0.50
2022-12-08T23:13:25.230Z,0.50
2022-12-08T23:15:51.931Z,0.50
2022-12-08T23:18:19.620Z,0.40
2022-12-08T23:20:47.150Z,0.40
2022-12-08T23:23:14.617Z,0.40
2022-12-08T23:25:43.080Z,0.40
2022-12-08T23:28:10.243Z,0.40
2022-12-08T23:30:39.976Z,0.40
2022-12-08T23:33:06.904Z,0.40
2022-12-08T23:35:33.780Z,0.40
2022-12-08T23:38:00.791Z,0.40
2022-12-08T23:40:27.551Z,0.40
2022-12-08T23:42:54.436Z,0.40
2022-12-08T23:45:21.241Z,0.30
2022-12-08T23:47:48.068Z,0.40
2022-12-08T23:50:15.037Z,0.30
2022-12-08T23:52:41.739Z,0.30
2022-12-08T23:55:08.890Z,0.30
2022-12-08T23:57:36.631Z,0.30
